| time (UTC) | temp F | wind direction | speed MPH | gust MPH | rain 1hr in | rain 24hr in | rain mn in | humidity % | barometer mb |
| 20260510105542 | 50 | 158 | 0.0 | 3.0 | 0.00 | 0.07 | 0.00 | 92 | 1012.3 |
| 20260510105042 | 50 | 0 | 0.0 | 0.0 | 0.00 | 0.07 | 0.00 | 92 | 1012.3 |
| 20260510104559 | 50 | 0 | 0.0 | 1.0 | 0.00 | 0.07 | 0.00 | 92 | 1012.3 |
| 20260510104041 | 49 | 0 | 0.0 | 3.0 | 0.00 | 0.07 | 0.00 | 91 | 1012.2 |
| 20260510103541 | 50 | 0 | 1.0 | 3.0 | 0.00 | 0.07 | 0.00 | 90 | 1012.2 |
| 20260510103043 | 50 | 0 | 0.0 | 0.0 | 0.00 | 0.07 | 0.00 | 91 | 1012.2 |
| 20260510102541 | 50 | 0 | 0.0 | 0.0 | 0.00 | 0.07 | 0.00 | 90 | 1012.1 |
| 20260510102041 | 50 | 0 | 0.0 | 0.0 | 0.00 | 0.07 | 0.00 | 90 | 1011.9 |
| 20260510101555 | 50 | 0 | 0.0 | 3.0 | 0.00 | 0.07 | 0.00 | 90 | 1012.0 |
| 20260510101041 | 51 | 0 | 0.0 | 3.0 | 0.00 | 0.07 | 0.00 | 89 | 1011.9 |
| 20260510100542 | 52 | 0 | 1.0 | 3.0 | 0.00 | 0.07 | 0.00 | 90 | 1011.9 |
| 20260510100054 | 52 | 118 | 1.0 | 6.0 | 0.00 | 0.07 | 0.00 | 90 | 1011.8 |
| 20260510095543 | 52 | 0 | 1.0 | 6.0 | 0.00 | 0.07 | 0.00 | 89 | 1011.6 |
| 20260510095040 | 53 | 115 | 3.0 | 6.0 | 0.00 | 0.07 | 0.00 | 89 | 1011.9 |
| 20260510094600 | 53 | 130 | 1.0 | 4.0 | 0.00 | 0.07 | 0.00 | 89 | 1012.0 |
| 20260510094041 | 53 | 129 | 1.0 | 3.0 | 0.00 | 0.07 | 0.00 | 89 | 1011.8 |
| 20260510093541 | 53 | 133 | 1.0 | 3.0 | 0.00 | 0.07 | 0.00 | 89 | 1011.6 |
| 20260510093052 | 53 | 133 | 1.0 | 4.0 | 0.00 | 0.07 | 0.00 | 89 | 1011.7 |
| 20260510092542 | 53 | 342 | 0.0 | 4.0 | 0.00 | 0.07 | 0.00 | 90 | 1011.8 |
| 20260510092042 | 53 | 340 | 1.0 | 4.0 | 0.00 | 0.07 | 0.00 | 90 | 1011.9 |
| 20260510091550 | 53 | 16 | 0.0 | 8.0 | 0.00 | 0.07 | 0.00 | 91 | 1011.8 |
| 20260510091045 | 53 | 46 | 3.0 | 14.0 | 0.00 | 0.07 | 0.00 | 92 | 1011.9 |
| 20260510090545 | 53 | 325 | 7.0 | 14.0 | 0.00 | 0.07 | 0.00 | 94 | 1012.0 |
| 20260510090110 | 51 | 310 | 7.0 | 12.0 | 0.00 | 0.07 | 0.00 | 94 | 1012.2 |
| 20260510085542 | 50 | 333 | 5.0 | 6.0 | 0.00 | 0.07 | 0.00 | 93 | 1012.1 |
| 20260510085041 | 50 | 331 | 3.0 | 5.0 | 0.00 | 0.07 | 0.00 | 93 | 1011.8 |
| 20260510084600 | 50 | 0 | 1.0 | 5.0 | 0.00 | 0.07 | 0.00 | 93 | 1011.4 |
| 20260510084041 | 50 | 343 | 3.0 | 5.0 | 0.00 | 0.07 | 0.00 | 93 | 1011.5 |
| 20260510083541 | 50 | 0 | 1.0 | 3.0 | 0.00 | 0.07 | 0.00 | 92 | 1011.1 |
| 20260510083112 | 51 | 0 | 0.0 | 0.0 | 0.00 | 0.07 | 0.00 | 93 | 1010.9 |
| 20260510082541 | 51 | 0 | 0.0 | 0.0 | 0.00 | 0.07 | 0.00 | 93 | 1010.8 |
| 20260510082041 | 51 | 0 | 0.0 | 0.0 | 0.00 | 0.07 | 0.00 | 92 | 1010.8 |
| 20260510081608 | 51 | 0 | 0.0 | 0.0 | 0.00 | 0.07 | 0.00 | 92 | 1010.8 |
| 20260510081041 | 51 | 0 | 0.0 | 2.0 | 0.00 | 0.07 | 0.00 | 92 | 1010.8 |
| 20260510080541 | 51 | 0 | 0.0 | 2.0 | 0.00 | 0.07 | 0.00 | 92 | 1010.7 |
| 20260510080053 | 52 | 158 | 0.0 | 0.0 | 0.00 | 0.07 | 0.00 | 92 | 1010.8 |
| 20260510075542 | 52 | 0 | 0.0 | 0.0 | 0.00 | 0.07 | 0.00 | 92 | 1010.8 |
| 20260510075042 | 52 | 0 | 0.0 | 1.0 | 0.00 | 0.07 | 0.00 | 92 | 1010.7 |
| 20260510074552 | 52 | 0 | 0.0 | 1.0 | 0.00 | 0.07 | 0.00 | 92 | 1010.7 |
| 20260510074044 | 52 | 0 | 0.0 | 3.0 | 0.00 | 0.07 | 0.00 | 92 | 1010.7 |
| 20260510073541 | 52 | 0 | 0.0 | 3.0 | 0.00 | 0.07 | 0.00 | 93 | 1010.7 |
| 20260510073055 | 52 | 0 | 1.0 | 3.0 | 0.00 | 0.07 | 0.00 | 93 | 1010.7 |
| 20260510072541 | 52 | 155 | 0.0 | 5.0 | 0.00 | 0.07 | 0.00 | 93 | 1010.7 |
| 20260510072041 | 51 | 155 | 2.0 | 5.0 | 0.00 | 0.07 | 0.00 | 94 | 1010.7 |
| 20260510071552 | 51 | 57 | 0.0 | 4.0 | 0.00 | 0.07 | 0.00 | 93 | 1010.6 |
| 20260510071041 | 50 | 0 | 1.0 | 4.0 | 0.00 | 0.07 | 0.00 | 92 | 1010.5 |
| 20260510070541 | 50 | 0 | 1.0 | 4.0 | 0.00 | 0.07 | 0.00 | 92 | 1010.7 |
| 20260510070050 | 50 | 34 | 1.0 | 4.0 | 0.00 | 0.07 | 0.00 | 91 | 1010.8 |
| 20260510065541 | 51 | 0 | 0.0 | 4.0 | 0.00 | 0.07 | 0.00 | 90 | 1010.9 |
| 20260510065041 | 51 | 0 | 0.0 | 0.0 | 0.00 | 0.07 | 0.00 | 90 | 1010.9 |
| 20260510064551 | 52 | 0 | 0.0 | 6.0 | 0.00 | 0.07 | 0.00 | 90 | 1010.8 |
| 20260510064041 | 53 | 0 | 0.0 | 9.0 | 0.00 | 0.07 | 0.00 | 90 | 1010.7 |
| 20260510063542 | 54 | 304 | 5.0 | 11.0 | 0.00 | 0.07 | 0.00 | 94 | 1010.7 |
| 20260510063056 | 53 | 300 | 6.0 | 13.0 | 0.00 | 0.07 | 0.00 | 96 | 1010.9 |
| 20260510062542 | 53 | 280 | 8.0 | 13.0 | 0.00 | 0.07 | 0.00 | 96 | 1011.0 |
| 20260510062044 | 51 | 290 | 7.0 | 16.0 | 0.00 | 0.07 | 0.00 | 95 | 1011.1 |
| 20260510061604 | 49 | 252 | 5.0 | 16.0 | 0.00 | 0.07 | 0.00 | 95 | 1010.9 |
| 20260510061041 | 46 | 325 | 4.0 | 15.0 | 0.00 | 0.07 | 0.00 | 93 | 1011.3 |
| 20260510060542 | 46 | 0 | 0.0 | 1.0 | 0.00 | 0.07 | 0.00 | 94 | 1010.6 |
| 20260510055541 | 47 | 0 | 0.0 | 1.0 | 0.00 | 0.07 | 0.00 | 94 | 1010.8 |
| 20260510055041 | 46 | 0 | 0.0 | 3.0 | 0.00 | 0.07 | 0.00 | 94 | 1010.8 |
| 20260510054547 | 46 | 0 | 0.0 | 3.0 | 0.00 | 0.07 | 0.00 | 94 | 1010.8 |
| 20260510054041 | 46 | 343 | 2.0 | 3.0 | 0.00 | 0.07 | 0.00 | 93 | 1010.8 |
| 20260510053542 | 46 | 343 | 1.0 | 3.0 | 0.00 | 0.07 | 0.00 | 94 | 1010.7 |
| 20260510053055 | 46 | 343 | 1.0 | 3.0 | 0.00 | 0.07 | 0.00 | 94 | 1010.5 |
| 20260510052541 | 45 | 343 | 2.0 | 3.0 | 0.00 | 0.07 | 0.00 | 93 | 1010.7 |
| 20260510052041 | 46 | 343 | 1.0 | 3.0 | 0.00 | 0.07 | 0.00 | 92 | 1010.7 |
| 20260510051555 | 46 | 0 | 0.0 | 0.0 | 0.00 | 0.07 | 0.00 | 93 | 1010.7 |
| 20260510051042 | 46 | 0 | 0.0 | 1.0 | 0.00 | 0.07 | 0.00 | 93 | 1010.6 |
| 20260510050544 | 46 | 0 | 0.0 | 2.0 | 0.00 | 0.07 | 0.00 | 92 | 1010.6 |
| 20260510050053 | 46 | 0 | 0.0 | 2.0 | 0.00 | 0.07 | 0.00 | 92 | 1010.6 |
| 20260510045542 | 47 | 343 | 1.0 | 2.0 | 0.00 | 0.07 | 0.00 | 92 | 1010.5 |
| 20260510045043 | 47 | 0 | 0.0 | 0.0 | 0.00 | 0.07 | 0.00 | 93 | 1010.6 |
| 20260510044552 | 47 | 0 | 0.0 | 0.0 | 0.00 | 0.07 | 0.00 | 92 | 1010.5 |
| 20260510044041 | 47 | 0 | 0.0 | 0.0 | 0.00 | 0.07 | 0.00 | 93 | 1010.5 |
| 20260510043541 | 47 | 0 | 0.0 | 0.0 | 0.00 | 0.07 | 0.00 | 93 | 1010.5 |
| 20260510043100 | 47 | 0 | 0.0 | 0.0 | 0.00 | 0.07 | 0.00 | 93 | 1010.6 |
| 20260510042542 | 47 | 0 | 0.0 | 0.0 | 0.00 | 0.07 | 0.00 | 93 | 1010.6 |
| 20260510042045 | 47 | 0 | 0.0 | 0.0 | 0.00 | 0.07 | 0.00 | 93 | 1010.5 |
| 20260510041551 | 47 | 0 | 0.0 | 0.0 | 0.00 | 0.07 | 0.00 | 92 | 1010.4 |
| 20260510041042 | 47 | 0 | 0.0 | 0.0 | 0.00 | 0.07 | 0.00 | 92 | 1010.4 |
| 20260510040542 | 47 | 0 | 0.0 | 0.0 | 0.00 | 0.07 | 0.00 | 92 | 1010.4 |
| 20260510035541 | 47 | 0 | 0.0 | 0.0 | 0.00 | 0.07 | 0.07 | 92 | 1010.6 |
| 20260510035041 | 47 | 0 | 0.0 | 0.0 | 0.00 | 0.07 | 0.07 | 92 | 1010.4 |
| 20260510034555 | 47 | 0 | 0.0 | 0.0 | 0.00 | 0.07 | 0.07 | 92 | 1010.4 |
| 20260510034042 | 48 | 0 | 0.0 | 3.0 | 0.00 | 0.07 | 0.07 | 92 | 1010.4 |
| 20260510033543 | 48 | 0 | 0.0 | 3.0 | 0.00 | 0.07 | 0.07 | 92 | 1010.5 |
| 20260510033053 | 48 | 0 | 2.0 | 3.0 | 0.00 | 0.07 | 0.07 | 92 | 1010.4 |
| 20260510032542 | 48 | 0 | 0.0 | 0.0 | 0.00 | 0.07 | 0.07 | 92 | 1010.6 |
| 20260510032041 | 48 | 0 | 0.0 | 0.0 | 0.00 | 0.07 | 0.07 | 92 | 1010.6 |
| 20260510031602 | 48 | 0 | 0.0 | 0.0 | 0.00 | 0.07 | 0.07 | 92 | 1010.5 |
| 20260510031041 | 47 | 0 | 0.0 | 0.0 | 0.00 | 0.07 | 0.07 | 91 | 1010.4 |
| 20260510030542 | 48 | 0 | 0.0 | 0.0 | 0.00 | 0.07 | 0.07 | 91 | 1010.5 |
| 20260510030051 | 48 | 0 | 0.0 | 1.0 | 0.00 | 0.07 | 0.07 | 92 | 1010.5 |
| 20260510025542 | 48 | 0 | 0.0 | 2.0 | 0.00 | 0.07 | 0.07 | 92 | 1010.6 |
| 20260510025041 | 48 | 342 | 1.0 | 4.0 | 0.00 | 0.07 | 0.07 | 92 | 1010.5 |
| 20260510024556 | 48 | 342 | 1.0 | 4.0 | 0.00 | 0.07 | 0.07 | 91 | 1010.6 |
| 20260510024041 | 49 | 342 | 1.0 | 5.0 | 0.00 | 0.07 | 0.07 | 91 | 1010.5 |
| 20260510023541 | 49 | 0 | 0.0 | 5.0 | 0.00 | 0.07 | 0.07 | 91 | 1010.5 |
| 20260510023053 | 49 | 342 | 3.0 | 5.0 | 0.00 | 0.07 | 0.07 | 92 | 1010.4 |
| 20260510022541 | 48 | 0 | 0.0 | 4.0 | 0.00 | 0.07 | 0.07 | 91 | 1010.4 |
| 20260510022041 | 48 | 0 | 2.0 | 4.0 | 0.00 | 0.07 | 0.07 | 90 | 1010.4 |
| 20260510021558 | 49 | 17 | 2.0 | 4.0 | 0.00 | 0.07 | 0.07 | 91 | 1010.4 |
| 20260510021041 | 49 | 0 | 0.0 | 3.0 | 0.00 | 0.07 | 0.07 | 89 | 1010.4 |
| 20260510020541 | 50 | 17 | 1.0 | 3.0 | 0.00 | 0.07 | 0.07 | 90 | 1010.2 |
| 20260510020053 | 50 | 17 | 1.0 | 3.0 | 0.00 | 0.07 | 0.07 | 90 | 1010.2 |
| 20260510015541 | 50 | 0 | 0.0 | 1.0 | 0.00 | 0.07 | 0.07 | 90 | 1010.1 |
| 20260510015041 | 50 | 0 | 0.0 | 1.0 | 0.00 | 0.07 | 0.07 | 89 | 1010.1 |
| 20260510014600 | 51 | 0 | 0.0 | 0.0 | 0.00 | 0.07 | 0.07 | 90 | 1010.0 |
| 20260510014041 | 51 | 0 | 0.0 | 0.0 | 0.00 | 0.07 | 0.07 | 90 | 1009.9 |
| 20260510013545 | 51 | 0 | 0.0 | 0.0 | 0.00 | 0.07 | 0.07 | 90 | 1009.9 |
| 20260510013110 | 51 | 0 | 0.0 | 2.0 | 0.00 | 0.07 | 0.07 | 89 | 1009.8 |
| 20260510012543 | 51 | 0 | 0.0 | 2.0 | 0.00 | 0.07 | 0.07 | 89 | 1009.7 |
| 20260510012042 | 52 | 0 | 0.0 | 3.0 | 0.00 | 0.07 | 0.07 | 89 | 1009.7 |
| 20260510011551 | 52 | 17 | 1.0 | 3.0 | 0.00 | 0.07 | 0.07 | 89 | 1009.7 |
| 20260510011043 | 52 | 17 | 1.0 | 3.0 | 0.00 | 0.07 | 0.07 | 89 | 1009.6 |
| 20260510010541 | 52 | 0 | 0.0 | 3.0 | 0.00 | 0.07 | 0.07 | 88 | 1009.5 |
| 20260510010056 | 52 | 17 | 2.0 | 3.0 | 0.00 | 0.07 | 0.07 | 89 | 1009.4 |
| 20260510005541 | 52 | 17 | 1.0 | 3.0 | 0.00 | 0.07 | 0.07 | 89 | 1009.4 |
| 20260510005041 | 52 | 0 | 1.0 | 3.0 | 0.00 | 0.07 | 0.07 | 88 | 1009.3 |
| 20260510004557 | 53 | 17 | 1.0 | 3.0 | 0.00 | 0.07 | 0.07 | 87 | 1009.1 |
| 20260510004040 | 53 | 17 | 2.0 | 3.0 | 0.00 | 0.07 | 0.07 | 87 | 1009.1 |
| 20260510003541 | 53 | 17 | 0.0 | 3.0 | 0.00 | 0.07 | 0.07 | 86 | 1009.1 |
| 20260510003055 | 54 | 17 | 2.0 | 3.0 | 0.00 | 0.07 | 0.07 | 85 | 1009.1 |
| 20260510002545 | 54 | 17 | 1.0 | 3.0 | 0.00 | 0.07 | 0.07 | 84 | 1009.0 |
| 20260510002041 | 55 | 17 | 1.0 | 4.0 | 0.00 | 0.07 | 0.07 | 83 | 1009.1 |
| 20260510001555 | 56 | 17 | 2.0 | 4.0 | 0.00 | 0.07 | 0.07 | 82 | 1009.0 |
| 20260510001042 | 56 | 17 | 2.0 | 4.0 | 0.00 | 0.07 | 0.07 | 83 | 1009.1 |
| 20260510000541 | 56 | 117 | 2.0 | 4.0 | 0.00 | 0.07 | 0.07 | 83 | 1009.0 |
| 20260510000051 | 56 | 117 | 2.0 | 3.0 | 0.00 | 0.07 | 0.07 | 81 | 1008.9 |
| 20260509235541 | 57 | 118 | 1.0 | 3.0 | 0.00 | 0.07 | 0.07 | 80 | 1008.9 |
| 20260509235042 | 59 | 118 | 1.0 | 3.0 | 0.00 | 0.07 | 0.07 | 77 | 1008.9 |
| 20260509234552 | 60 | 0 | 0.0 | 2.0 | 0.00 | 0.07 | 0.07 | 75 | 1008.8 |
| 20260509234041 | 62 | 0 | 0.0 | 2.0 | 0.00 | 0.07 | 0.07 | 72 | 1008.9 |
| 20260509233540 | 63 | 118 | 0.0 | 1.0 | 0.00 | 0.07 | 0.07 | 71 | 1008.9 |
| 20260509233058 | 63 | 0 | 0.0 | 2.0 | 0.00 | 0.07 | 0.07 | 71 | 1008.8 |
| 20260509232542 | 63 | 0 | 0.0 | 4.0 | 0.00 | 0.07 | 0.07 | 70 | 1008.7 |
| 20260509232041 | 63 | 0 | 0.0 | 6.0 | 0.00 | 0.07 | 0.07 | 69 | 1008.7 |
| 20260509231558 | 63 | 117 | 2.0 | 6.0 | 0.00 | 0.07 | 0.07 | 69 | 1008.6 |
| 20260509231041 | 63 | 107 | 3.0 | 7.0 | 0.00 | 0.07 | 0.07 | 67 | 1008.7 |
| 20260509230541 | 63 | 123 | 3.0 | 8.0 | 0.00 | 0.07 | 0.07 | 67 | 1008.7 |
| 20260509230052 | 63 | 119 | 3.0 | 8.0 | 0.00 | 0.07 | 0.07 | 67 | 1008.7 |
| 20260509225541 | 63 | 115 | 4.0 | 8.0 | 0.00 | 0.07 | 0.07 | 67 | 1008.6 |
| 20260509225041 | 64 | 130 | 5.0 | 8.0 | 0.00 | 0.07 | 0.07 | 68 | 1008.7 |
| 20260509224549 | 64 | 113 | 4.0 | 8.0 | 0.00 | 0.07 | 0.07 | 69 | 1008.7 |
| 20260509224042 | 64 | 96 | 3.0 | 8.0 | 0.00 | 0.07 | 0.07 | 68 | 1008.7 |
| 20260509223542 | 64 | 109 | 4.0 | 8.0 | 0.00 | 0.07 | 0.07 | 67 | 1008.8 |
| 20260509223053 | 65 | 103 | 3.0 | 5.0 | 0.00 | 0.07 | 0.07 | 65 | 1008.8 |
| 20260509222541 | 64 | 115 | 2.0 | 4.0 | 0.00 | 0.07 | 0.07 | 64 | 1008.8 |
| 20260509222041 | 64 | 119 | 2.0 | 4.0 | 0.00 | 0.07 | 0.07 | 64 | 1008.7 |
| 20260509221551 | 64 | 0 | 1.0 | 4.0 | 0.00 | 0.07 | 0.07 | 66 | 1008.9 |
| 20260509221042 | 64 | 107 | 1.0 | 4.0 | 0.00 | 0.07 | 0.07 | 66 | 1008.9 |
| 20260509220542 | 64 | 101 | 2.0 | 6.0 | 0.00 | 0.07 | 0.07 | 68 | 1008.8 |
| 20260509220054 | 64 | 94 | 2.0 | 6.0 | 0.00 | 0.07 | 0.07 | 68 | 1008.9 |
| 20260509215541 | 64 | 141 | 1.0 | 4.0 | 0.00 | 0.07 | 0.07 | 67 | 1008.8 |
| 20260509215041 | 64 | 144 | 1.0 | 3.0 | 0.00 | 0.07 | 0.07 | 67 | 1008.9 |
| 20260509214546 | 64 | 144 | 1.0 | 5.0 | 0.00 | 0.07 | 0.07 | 69 | 1008.9 |
| 20260509214041 | 64 | 144 | 1.0 | 5.0 | 0.00 | 0.07 | 0.07 | 66 | 1008.9 |
| 20260509213540 | 64 | 145 | 1.0 | 6.0 | 0.00 | 0.07 | 0.07 | 67 | 1008.9 |
| 20260509213054 | 64 | 0 | 2.0 | 6.0 | 0.00 | 0.07 | 0.07 | 67 | 1008.9 |
| 20260509212539 | 64 | 124 | 2.0 | 8.0 | 0.00 | 0.07 | 0.07 | 66 | 1008.9 |
| 20260509212041 | 64 | 121 | 1.0 | 8.0 | 0.00 | 0.07 | 0.07 | 65 | 1009.0 |
| 20260509211552 | 64 | 105 | 2.0 | 7.0 | 0.00 | 0.07 | 0.07 | 66 | 1009.0 |
| 20260509211042 | 64 | 144 | 3.0 | 5.0 | 0.00 | 0.07 | 0.07 | 68 | 1009.1 |
| 20260509210539 | 64 | 146 | 1.0 | 5.0 | 0.00 | 0.07 | 0.07 | 70 | 1009.2 |
| 20260509210100 | 63 | 178 | 1.0 | 6.0 | 0.00 | 0.07 | 0.07 | 66 | 1009.2 |
| 20260509205541 | 63 | 173 | 2.0 | 6.0 | 0.00 | 0.07 | 0.07 | 66 | 1009.3 |
| 20260509205041 | 63 | 146 | 1.0 | 5.0 | 0.00 | 0.07 | 0.07 | 69 | 1009.3 |
| 20260509204554 | 63 | 0 | 0.0 | 5.0 | 0.00 | 0.07 | 0.07 | 66 | 1009.3 |
| 20260509204041 | 63 | 0 | 1.0 | 5.0 | 0.00 | 0.07 | 0.07 | 66 | 1009.4 |
| 20260509203538 | 63 | 160 | 2.0 | 5.0 | 0.00 | 0.07 | 0.07 | 67 | 1009.3 |
| 20260509203053 | 63 | 160 | 0.0 | 6.0 | 0.00 | 0.07 | 0.07 | 68 | 1009.3 |
| 20260509202538 | 63 | 160 | 2.0 | 6.0 | 0.00 | 0.07 | 0.07 | 67 | 1009.3 |
| 20260509202045 | 63 | 161 | 3.0 | 6.0 | 0.00 | 0.07 | 0.07 | 67 | 1009.4 |
| 20260509201546 | 63 | 160 | 1.0 | 5.0 | 0.00 | 0.07 | 0.07 | 68 | 1009.4 |
| 20260509201041 | 63 | 170 | 2.0 | 8.0 | 0.00 | 0.07 | 0.07 | 68 | 1009.4 |
| 20260509200541 | 62 | 191 | 2.0 | 8.0 | 0.00 | 0.07 | 0.07 | 70 | 1009.5 |
| 20260509200049 | 62 | 0 | 2.0 | 7.0 | 0.00 | 0.07 | 0.07 | 71 | 1009.5 |
| 20260509195545 | 62 | 138 | 3.0 | 7.0 | 0.00 | 0.07 | 0.07 | 70 | 1009.4 |
| 20260509195042 | 62 | 96 | 3.0 | 8.0 | 0.00 | 0.07 | 0.07 | 70 | 1009.2 |
| 20260509194552 | 62 | 144 | 2.0 | 8.0 | 0.00 | 0.07 | 0.07 | 71 | 1009.3 |
| 20260509194038 | 62 | 111 | 4.0 | 8.0 | 0.00 | 0.07 | 0.07 | 70 | 1009.3 |
| 20260509193542 | 62 | 122 | 4.0 | 9.0 | 0.00 | 0.07 | 0.07 | 72 | 1009.3 |
| 20260509193053 | 62 | 117 | 4.0 | 9.0 | 0.00 | 0.07 | 0.07 | 72 | 1009.4 |
| 20260509192543 | 62 | 124 | 2.0 | 4.0 | 0.00 | 0.07 | 0.07 | 71 | 1009.5 |
| 20260509192042 | 62 | 101 | 1.0 | 4.0 | 0.00 | 0.07 | 0.07 | 71 | 1009.4 |
| 20260509191548 | 62 | 97 | 1.0 | 7.0 | 0.00 | 0.07 | 0.07 | 71 | 1009.4 |
| 20260509191041 | 63 | 98 | 4.0 | 7.0 | 0.00 | 0.07 | 0.07 | 69 | 1009.6 |
| 20260509190542 | 63 | 123 | 1.0 | 6.0 | 0.00 | 0.07 | 0.07 | 73 | 1009.4 |
| 20260509190054 | 63 | 136 | 1.0 | 6.0 | 0.00 | 0.07 | 0.07 | 70 | 1009.5 |
| 20260509185541 | 63 | 188 | 2.0 | 7.0 | 0.00 | 0.07 | 0.07 | 73 | 1009.6 |
| 20260509185042 | 62 | 236 | 2.0 | 7.0 | 0.00 | 0.07 | 0.07 | 71 | 1009.6 |
| 20260509184638 | 62 | 198 | 3.0 | 7.0 | 0.00 | 0.07 | 0.07 | 71 | 1009.8 |
| 20260509184045 | 62 | 213 | 1.0 | 7.0 | 0.00 | 0.07 | 0.07 | 74 | 1009.7 |
| 20260509183541 | 61 | 152 | 3.0 | 7.0 | 0.00 | 0.07 | 0.07 | 74 | 1009.8 |
| 20260509183055 | 61 | 108 | 0.0 | 9.0 | 0.00 | 0.07 | 0.07 | 75 | 1009.9 |
| 20260509182541 | 61 | 121 | 2.0 | 9.0 | 0.00 | 0.07 | 0.07 | 76 | 1010.2 |
| 20260509182041 | 61 | 125 | 4.0 | 9.0 | 0.00 | 0.07 | 0.07 | 77 | 1010.2 |
| 20260509181558 | 60 | 111 | 2.0 | 10.0 | 0.00 | 0.07 | 0.07 | 76 | 1010.3 |
| 20260509181041 | 60 | 0 | 1.0 | 10.0 | 0.00 | 0.07 | 0.07 | 77 | 1010.5 |
| 20260509180541 | 60 | 175 | 2.0 | 7.0 | 0.00 | 0.07 | 0.07 | 78 | 1010.4 |
| 20260509180050 | 59 | 166 | 3.0 | 9.0 | 0.00 | 0.07 | 0.07 | 77 | 1010.5 |
| 20260509175544 | 59 | 177 | 4.0 | 10.0 | 0.00 | 0.07 | 0.07 | 78 | 1010.6 |
| 20260509175042 | 59 | 139 | 5.0 | 10.0 | 0.00 | 0.07 | 0.07 | 79 | 1010.7 |
| 20260509174547 | 59 | 94 | 5.0 | 8.0 | 0.00 | 0.07 | 0.07 | 80 | 1010.5 |
| 20260509174042 | 58 | 117 | 3.0 | 6.0 | 0.00 | 0.07 | 0.07 | 80 | 1010.7 |
| 20260509173540 | 58 | 127 | 2.0 | 5.0 | 0.00 | 0.07 | 0.07 | 81 | 1010.8 |
| 20260509173047 | 57 | 142 | 3.0 | 8.0 | 0.00 | 0.07 | 0.07 | 81 | 1010.8 |
| 20260509172542 | 57 | 0 | 3.0 | 8.0 | 0.00 | 0.07 | 0.07 | 82 | 1011.0 |
| 20260509172042 | 56 | 130 | 1.0 | 6.0 | 0.00 | 0.07 | 0.07 | 82 | 1011.1 |
| 20260509171551 | 56 | 341 | 4.0 | 6.0 | 0.00 | 0.07 | 0.07 | 82 | 1010.8 |
| 20260509171044 | 56 | 332 | 3.0 | 6.0 | 0.00 | 0.07 | 0.07 | 82 | 1011.0 |
| 20260509170541 | 56 | 337 | 1.0 | 3.0 | 0.00 | 0.07 | 0.07 | 82 | 1010.9 |
| 20260509170059 | 56 | 154 | 0.0 | 3.0 | 0.00 | 0.07 | 0.07 | 81 | 1011.2 |
| 20260509165539 | 56 | 151 | 0.0 | 7.0 | 0.00 | 0.07 | 0.07 | 81 | 1011.2 |
| 20260509165042 | 56 | 149 | 0.0 | 7.0 | 0.00 | 0.07 | 0.07 | 81 | 1010.9 |
| 20260509164554 | 56 | 149 | 4.0 | 7.0 | 0.00 | 0.07 | 0.07 | 82 | 1011.2 |
| 20260509164043 | 56 | 135 | 2.0 | 7.0 | 0.00 | 0.07 | 0.07 | 82 | 1011.3 |
| 20260509163539 | 56 | 149 | 2.0 | 8.0 | 0.00 | 0.07 | 0.07 | 83 | 1011.3 |
| 20260509163105 | 56 | 146 | 1.0 | 9.0 | 0.00 | 0.07 | 0.07 | 84 | 1011.3 |
| 20260509162544 | 56 | 156 | 4.0 | 9.0 | 0.00 | 0.07 | 0.07 | 84 | 1011.4 |
| 20260509162041 | 56 | 137 | 3.0 | 10.0 | 0.00 | 0.07 | 0.07 | 85 | 1011.2 |
| 20260509161546 | 55 | 138 | 4.0 | 13.0 | 0.00 | 0.07 | 0.07 | 85 | 1011.3 |
| 20260509161043 | 55 | 178 | 7.0 | 13.0 | 0.00 | 0.07 | 0.07 | 84 | 1011.2 |
| 20260509160541 | 56 | 140 | 4.0 | 11.0 | 0.00 | 0.07 | 0.07 | 86 | 1011.3 |
| 20260509160052 | 56 | 153 | 5.0 | 11.0 | 0.00 | 0.07 | 0.07 | 86 | 1011.3 |
| 20260509155543 | 56 | 142 | 6.0 | 11.0 | 0.00 | 0.07 | 0.07 | 86 | 1011.2 |
| 20260509155041 | 56 | 124 | 6.0 | 11.0 | 0.00 | 0.07 | 0.07 | 86 | 1011.2 |
| 20260509154550 | 56 | 131 | 3.0 | 10.0 | 0.01 | 0.07 | 0.07 | 86 | 1011.2 |
| 20260509154044 | 56 | 114 | 5.0 | 10.0 | 0.01 | 0.07 | 0.07 | 85 | 1011.2 |
| 20260509153541 | 56 | 127 | 2.0 | 10.0 | 0.02 | 0.07 | 0.07 | 86 | 1011.2 |
| 20260509153049 | 55 | 128 | 5.0 | 10.0 | 0.02 | 0.07 | 0.07 | 85 | 1011.1 |
| 20260509152542 | 55 | 143 | 6.0 | 9.0 | 0.03 | 0.07 | 0.07 | 87 | 1010.9 |
| 20260509152041 | 54 | 76 | 0.0 | 10.0 | 0.04 | 0.07 | 0.07 | 86 | 1010.8 |
| 20260509151555 | 54 | 350 | 2.0 | 10.0 | 0.05 | 0.07 | 0.07 | 88 | 1010.8 |
| 20260509151041 | 54 | 5 | 3.0 | 7.0 | 0.06 | 0.07 | 0.07 | 87 | 1010.9 |
| 20260509150542 | 53 | 74 | 2.0 | 7.0 | 0.07 | 0.07 | 0.07 | 87 | 1011.0 |
| 20260509150056 | 53 | 0 | 2.0 | 5.0 | 0.07 | 0.07 | 0.07 | 88 | 1011.1 |
| 20260509145542 | 53 | 17 | 1.0 | 6.0 | 0.07 | 0.07 | 0.07 | 87 | 1011.0 |
| 20260509145039 | 53 | 350 | 4.0 | 8.0 | 0.07 | 0.07 | 0.07 | 88 | 1011.4 |
| 20260509144553 | 53 | 0 | 3.0 | 8.0 | 0.06 | 0.06 | 0.06 | 89 | 1011.3 |
| 20260509144042 | 53 | 69 | 4.0 | 7.0 | 0.06 | 0.06 | 0.06 | 88 | 1011.4 |
| 20260509143601 | 53 | 113 | 1.0 | 4.0 | 0.05 | 0.05 | 0.05 | 88 | 1011.4 |
| 20260509143055 | 54 | 113 | 2.0 | 7.0 | 0.05 | 0.05 | 0.05 | 87 | 1011.5 |
| 20260509142542 | 54 | 126 | 2.0 | 7.0 | 0.04 | 0.04 | 0.04 | 86 | 1011.4 |
| 20260509142045 | 54 | 115 | 5.0 | 8.0 | 0.03 | 0.03 | 0.03 | 84 | 1011.6 |
| 20260509141601 | 54 | 264 | 1.0 | 11.0 | 0.02 | 0.02 | 0.02 | 83 | 1011.5 |
| 20260509141045 | 54 | 288 | 5.0 | 13.0 | 0.01 | 0.01 | 0.01 | 82 | 1011.3 |
| 20260509140541 | 54 | 275 | 7.0 | 13.0 | 0.00 | 0.00 | 0.00 | 82 | 1011.2 |
| 20260509140100 | 54 | 285 | 6.0 | 11.0 | 0.00 | 0.00 | 0.00 | 83 | 1011.1 |
| 20260509135541 | 54 | 311 | 6.0 | 12.0 | 0.00 | 0.00 | 0.00 | 82 | 1011.1 |
| 20260509135038 | 54 | 294 | 6.0 | 12.0 | 0.00 | 0.00 | 0.00 | 82 | 1011.2 |
| 20260509134551 | 55 | 295 | 8.0 | 12.0 | 0.00 | 0.00 | 0.00 | 80 | 1011.2 |
| 20260509134041 | 55 | 302 | 7.0 | 14.0 | 0.00 | 0.00 | 0.00 | 80 | 1011.1 |
| 20260509133541 | 55 | 286 | 7.0 | 14.0 | 0.00 | 0.00 | 0.00 | 79 | 1011.1 |
| 20260509133052 | 55 | 265 | 8.0 | 14.0 | 0.00 | 0.00 | 0.00 | 78 | 1011.1 |
| 20260509132538 | 55 | 270 | 8.0 | 13.0 | 0.00 | 0.00 | 0.00 | 77 | 1011.1 |
| 20260509132038 | 56 | 285 | 7.0 | 16.0 | 0.00 | 0.00 | 0.00 | 75 | 1011.1 |
| 20260509131551 | 56 | 269 | 9.0 | 16.0 | 0.00 | 0.00 | 0.00 | 73 | 1010.9 |
| 20260509131041 | 57 | 277 | 9.0 | 17.0 | 0.00 | 0.00 | 0.00 | 71 | 1010.9 |
| 20260509130544 | 57 | 281 | 10.0 | 17.0 | 0.00 | 0.00 | 0.00 | 71 | 1010.8 |
| 20260509130051 | 57 | 265 | 11.0 | 17.0 | 0.00 | 0.00 | 0.00 | 70 | 1010.8 |
| 20260509125542 | 57 | 269 | 13.0 | 17.0 | 0.00 | 0.00 | 0.00 | 69 | 1010.8 |
| 20260509125043 | 57 | 294 | 11.0 | 16.0 | 0.00 | 0.00 | 0.00 | 69 | 1010.8 |
| 20260509124558 | 57 | 261 | 7.0 | 13.0 | 0.00 | 0.00 | 0.00 | 69 | 1010.8 |
| 20260509124041 | 57 | 259 | 6.0 | 14.0 | 0.00 | 0.00 | 0.00 | 69 | 1010.8 |
| 20260509123541 | 57 | 287 | 8.0 | 14.0 | 0.00 | 0.00 | 0.00 | 68 | 1010.8 |
| 20260509123057 | 57 | 231 | 6.0 | 12.0 | 0.00 | 0.00 | 0.00 | 68 | 1010.7 |
| 20260509122541 | 57 | 261 | 5.0 | 12.0 | 0.00 | 0.00 | 0.00 | 68 | 1010.8 |
| 20260509122038 | 57 | 269 | 6.0 | 13.0 | 0.00 | 0.00 | 0.00 | 68 | 1010.7 |
| 20260509121545 | 57 | 270 | 7.0 | 13.0 | 0.00 | 0.00 | 0.00 | 68 | 1010.7 |
| 20260509121041 | 57 | 266 | 6.0 | 14.0 | 0.00 | 0.00 | 0.00 | 68 | 1010.9 |
| 20260509120538 | 57 | 262 | 7.0 | 14.0 | 0.00 | 0.00 | 0.00 | 69 | 1010.9 |
| 20260509120054 | 56 | 261 | 5.0 | 14.0 | 0.00 | 0.00 | 0.00 | 71 | 1010.9 |
| 20260509115537 | 56 | 275 | 6.0 | 14.0 | 0.00 | 0.00 | 0.00 | 69 | 1010.9 |
| 20260509115040 | 56 | 254 | 8.0 | 15.0 | 0.00 | 0.00 | 0.00 | 71 | 1010.9 |
| 20260509114552 | 55 | 269 | 9.0 | 15.0 | 0.00 | 0.00 | 0.00 | 74 | 1010.7 |
| 20260509114043 | 53 | 272 | 8.0 | 13.0 | 0.00 | 0.00 | 0.00 | 78 | 1010.6 |
| 20260509113543 | 51 | 288 | 3.0 | 7.0 | 0.00 | 0.00 | 0.00 | 87 | 1010.7 |
| 20260509113133 | 51 | 295 | 0.0 | 1.0 | 0.00 | 0.00 | 0.00 | 88 | 1010.8 |
| 20260509112542 | 50 | 0 | 0.0 | 3.0 | 0.00 | 0.00 | 0.00 | 88 | 1010.9 |
| 20260509112041 | 50 | 0 | 0.0 | 3.0 | 0.00 | 0.00 | 0.00 | 88 | 1011.0 |
| 20260509111555 | 50 | 0 | 1.0 | 3.0 | 0.00 | 0.00 | 0.00 | 88 | 1010.8 |
| 20260509111042 | 50 | 0 | 0.0 | 2.0 | 0.00 | 0.00 | 0.00 | 88 | 1010.8 |
| 20260509110545 | 50 | 295 | 0.0 | 1.0 | 0.00 | 0.00 | 0.00 | 88 | 1010.7 |
| 20260509110049 | 49 | 0 | 0.0 | 2.0 | 0.00 | 0.00 | 0.00 | 88 | 1010.6 |